Aérodrome :
LOGIN :

S'inscrire | Disclaimer

   EN    FR    IT 

 










Légende :    VFR   VFR Marginal   IFR   IFR Intensif   IFR Très Intensif
Visi : 
Plafond : 
>= 8 km
>= 3000ft
5 à 8 km
1000 à 3000 ft
1500m à 5 km
500 à 1000 ft
800 à 1500m
200 à 500 ft
< 800m
< 200 ft
Symboles :   Orages  Brouillard  Fortes neiges  Fortes précipitations  Vent > 20 kt
SIGMETs :   Divers  Orages  Givrage  Turbulence  Onde Orograph.  Cendres Volcan.






- Altitude de l'aérodrome : 844 ft
- Code IATA : OSR


LKMT - Ostrava-Mosnov

DERNIER METAR :
  • 180600Z 20006KT 9999 FEW035 06/02 Q1020 NOSIG

METARs EXPIRÉS :
  • 180530Z 20007KT 9999 FEW035 07/03 Q1020 NOSIG
  • 180500Z 21009KT 9999 BKN035 07/03 Q1020 NOSIG
  • 180430Z 22009KT 9999 FEW034 07/03 Q1020 NOSIG
  • 180400Z 23007KT 9999 OVC035 07/04 Q1020 NOSIG
  • 180330Z 21010KT CAVOK 07/04 Q1019 NOSIG
  • 180300Z 22008KT CAVOK 07/04 Q1019 NOSIG

TAF TAF LKMT
Valide du 18 à 06h jusqu'au 19 à 12h UTC


180500Z 1806/1912 23012KT 9999 SCT036
TEMPO 1810/1816 25014G26KT SHRA BKN033
PROB30
TEMPO 1810/1816 SCT026TCU
TEMPO 1908/1912 24016G30KT
BECMG 1909/1912 BKN033



MET'MAP, la Météo Aéronautique d'un coup d'oeil ! - Copyright ORBIFLY Décembre 2007 - Disclaimer

ORBIFLY MET'MAP TEAM :

Programmation & Développement : Alexandra Zaïnal
Sur une idée originale de : Baudouin d'Aumeries
Assistance à la programmation : Marc-Olivier Méhu
Soutien technique & logistique : Manuel Goepfert

Contact : metmap@orbifly.com




SOURCES & CREDITS :

   NOAA